Time;durP1;ratioP1;P1;durP2;ratioP2;P2;SDS_P1;SDS_P2;PMS_P1;PMS_P2;Temp;Humidity;BMP_temperature;BMP_pressure;BME280_temperature;BME280_humidity;BME280_pressure;Samples;Min_cycle;Max_cycle;Signal;HPM_P1;HPM_P2
2022/01/19 00:01:06;;;;;;;10.03;4.70;;;;;;;-3.05;100.00;100788.93;1699238;83;21071;-74
2022/01/19 00:03:33;;;;;;;8.17;4.43;;;;;;;-3.08;100.00;100795.58;1700231;83;21075;-73
2022/01/19 00:06:00;;;;;;;9.33;4.17;;;;;;;-3.10;100.00;100798.09;1706439;83;21051;-74
2022/01/19 00:08:28;;;;;;;6.47;4.27;;;;;;;-3.08;100.00;100793.06;1714827;83;21559;-74
2022/01/19 00:10:56;;;;;;;9.03;4.60;;;;;;;-3.11;100.00;100801.42;1704699;83;21042;-74
2022/01/19 00:13:24;;;;;;;8.27;4.37;;;;;;;-3.07;100.00;100806.95;1712500;83;21047;-74
2022/01/19 00:15:51;;;;;;;7.10;4.23;;;;;;;-3.08;100.00;100811.56;1699210;83;21076;-75
2022/01/19 00:18:22;;;;;;;10.00;4.43;;;;;;;-3.06;100.00;100812.44;1701831;83;21603;-73
2022/01/19 00:20:53;;;;;;;9.97;4.30;;;;;;;-3.00;100.00;100809.56;1700836;83;21039;-74
2022/01/19 00:23:20;;;;;;;7.87;4.20;;;;;;;-2.99;100.00;100836.45;1706357;83;21027;-74
2022/01/19 00:25:49;;;;;;;9.87;4.50;;;;;;;-3.02;100.00;100807.88;1698002;83;21130;-75
2022/01/19 00:28:17;;;;;;;7.07;3.80;;;;;;;-3.01;100.00;100817.53;1711394;83;21537;-75
2022/01/19 00:30:45;;;;;;;6.30;3.40;;;;;;;-2.98;100.00;100825.16;1705216;83;21039;-74
2022/01/19 00:33:14;;;;;;;9.70;4.03;;;;;;;-2.97;100.00;100834.39;1688875;83;21024;-74
2022/01/19 00:35:42;;;;;;;8.37;3.97;;;;;;;-2.94;100.00;100824.77;1686878;84;21084;-74
2022/01/19 00:38:10;;;;;;;8.90;4.07;;;;;;;-2.89;100.00;100834.11;1709436;83;21102;-75
2022/01/19 00:40:39;;;;;;;6.07;3.63;;;;;;;-2.92;100.00;100844.53;1708316;83;21055;-73
2022/01/19 00:43:06;;;;;;;7.67;3.97;;;;;;;-2.86;100.00;100848.02;1693667;83;21537;-75
2022/01/19 00:45:34;;;;;;;10.63;4.17;;;;;;;-2.85;100.00;100867.76;1691562;83;21080;-74
2022/01/19 00:48:01;;;;;;;7.53;3.77;;;;;;;-2.84;100.00;100852.67;1690884;83;21020;-74
2022/01/19 00:50:30;;;;;;;6.07;4.10;;;;;;;-2.88;100.00;100847.16;1714824;83;21044;-75
2022/01/19 00:52:59;;;;;;;8.20;4.00;;;;;;;-2.89;100.00;100837.05;1706891;83;21084;-74
2022/01/19 00:55:27;;;;;;;7.17;3.90;;;;;;;-2.92;100.00;100841.63;1707605;83;21075;-74
2022/01/19 00:57:55;;;;;;;8.50;4.03;;;;;;;-2.93;100.00;100838.66;1712883;83;21055;-73
2022/01/19 01:00:27;;;;;;;8.93;4.33;;;;;;;-2.98;100.00;100839.02;1693498;83;21070;-74
2022/01/19 01:02:55;;;;;;;9.53;4.33;;;;;;;-2.92;100.00;100839.50;1703433;83;21000;-74
2022/01/19 01:05:22;;;;;;;8.77;4.27;;;;;;;-2.90;100.00;100849.19;1693026;83;21063;-74
2022/01/19 01:07:50;;;;;;;8.63;4.20;;;;;;;-2.87;100.00;100845.47;1702119;83;21587;-73
2022/01/19 01:10:20;;;;;;;6.40;3.77;;;;;;;-2.90;100.00;100844.15;1707415;83;21532;-73
2022/01/19 01:12:51;;;;;;;6.47;3.77;;;;;;;-2.91;100.00;100846.25;1698145;83;21046;-74
2022/01/19 01:15:35;;;;;;;9.20;4.60;;;;;;;-2.90;100.00;100837.46;1695901;83;21547;-72
2022/01/19 01:20:32;;;;;;;8.50;4.13;;;;;;;-2.82;100.00;100840.08;1715139;83;21028;-74
2022/01/19 01:23:00;;;;;;;6.80;4.20;;;;;;;-2.92;100.00;100839.50;1682062;83;21049;-74
2022/01/19 01:25:28;;;;;;;10.07;4.33;;;;;;;-2.88;100.00;100857.62;1704940;83;21505;-74
2022/01/19 01:27:55;;;;;;;7.60;4.13;;;;;;;-2.87;100.00;100861.43;1713291;83;21554;-75
2022/01/19 01:30:23;;;;;;;8.73;4.60;;;;;;;-2.88;100.00;100871.47;1684830;83;21048;-74
2022/01/19 01:32:50;;;;;;;7.40;4.20;;;;;;;-2.85;100.00;100860.20;1699174;83;21522;-74
2022/01/19 01:35:19;;;;;;;7.40;3.67;;;;;;;-2.85;100.00;100869.86;1716130;83;21079;-73
2022/01/19 01:37:47;;;;;;;7.97;4.07;;;;;;;-2.86;100.00;100879.52;1696317;83;21504;-74
2022/01/19 01:40:14;;;;;;;5.93;4.20;;;;;;;-2.92;100.00;100881.06;1700290;83;21024;-73
2022/01/19 01:42:42;;;;;;;10.13;4.30;;;;;;;-2.83;100.00;100891.31;1694931;83;20991;-73
2022/01/19 01:45:13;;;;;;;7.57;3.73;;;;;;;-2.87;100.00;100888.30;1699324;83;21030;-74
2022/01/19 01:47:45;;;;;;;7.40;4.10;;;;;;;-2.88;100.00;100883.68;1705422;83;21584;-74
2022/01/19 01:55:26;;;;;;;10.47;3.60;;;;;;;-2.94;100.00;100881.06;1708312;83;21123;-74
2022/01/19 01:57:54;;;;;;;9.10;3.77;;;;;;;-2.94;100.00;100891.52;1708980;83;21527;-74
2022/01/19 02:00:25;;;;;;;6.80;3.93;;;;;;;-2.93;100.00;100876.86;1705577;83;21074;-74
2022/01/19 02:02:55;;;;;;;8.57;4.00;;;;;;;-2.99;100.00;100871.72;1705876;83;21548;-74
2022/01/19 02:05:27;;;;;;;6.43;4.10;;;;;;;-2.95;100.00;100874.31;1702383;83;21071;-72
2022/01/19 02:08:07;;;;;;;6.33;3.77;;;;;;;-2.92;100.00;100878.54;1715304;83;21089;-74
2022/01/19 02:10:57;;;;;;;6.00;3.37;;;;;;;-2.94;100.00;100872.24;1712225;83;21524;-74
2022/01/19 02:16:14;;;;;;;8.40;3.80;;;;;;;-2.85;100.00;100872.80;1697732;83;21072;-74
2022/01/19 02:23:57;;;;;;;6.03;3.50;;;;;;;-2.81;100.00;100903.52;1706496;83;21525;-74
2022/01/19 02:26:33;;;;;;;5.47;3.33;;;;;;;-2.88;100.00;100906.35;1699970;83;21023;-74
2022/01/19 02:42:42;;;;;;;7.67;3.80;;;;;;;-2.82;100.00;100908.97;1683303;83;21008;-73
2022/01/19 02:50:20;;;;;;;8.00;3.40;;;;;;;-2.83;100.00;100908.94;1706241;83;21097;-74
2022/01/19 02:52:47;;;;;;;4.87;3.40;;;;;;;-2.83;100.00;100906.42;1708793;83;21056;-74
2022/01/19 02:55:14;;;;;;;6.13;3.57;;;;;;;-2.80;100.00;100901.42;1710160;83;21007;-73
2022/01/19 02:57:45;;;;;;;6.93;3.47;;;;;;;-2.79;100.00;100916.98;1685576;83;21068;-73
2022/01/19 03:08:44;;;;;;;5.73;3.87;;;;;;;-2.76;100.00;100922.06;1710745;83;21510;-73
2022/01/19 03:11:19;;;;;;;7.77;3.33;;;;;;;-2.72;100.00;100924.23;1707041;83;21062;-74
2022/01/19 03:13:49;;;;;;;5.63;3.30;;;;;;;-2.77;100.00;100922.06;1716839;83;21087;-73
2022/01/19 03:16:20;;;;;;;8.70;3.63;;;;;;;-2.73;100.00;100932.63;1709884;83;21031;-73
2022/01/19 03:18:49;;;;;;;13.13;4.87;;;;;;;-2.82;100.00;100934.55;1711794;83;21037;-74
2022/01/19 03:21:17;;;;;;;6.47;3.23;;;;;;;-2.80;100.00;100935.44;1706052;83;21067;-72
2022/01/19 03:23:45;;;;;;;5.37;3.33;;;;;;;-2.75;100.00;100940.58;1689933;83;21039;-75
2022/01/19 03:26:13;;;;;;;5.87;2.90;;;;;;;-2.74;100.00;100947.30;1689934;83;21068;-74
2022/01/19 03:28:51;;;;;;;5.03;2.50;;;;;;;-2.72;100.00;100953.20;1685538;83;21519;-73
2022/01/19 03:31:18;;;;;;;6.30;3.00;;;;;;;-2.69;100.00;100945.30;1692901;83;21094;-74
2022/01/19 03:33:46;;;;;;;6.70;2.93;;;;;;;-2.70;100.00;100948.63;1688246;83;21064;-74
2022/01/19 03:36:12;;;;;;;6.07;3.10;;;;;;;-2.74;100.00;100949.39;1691403;83;21342;-74
2022/01/19 03:38:40;;;;;;;5.40;3.13;;;;;;;-2.74;100.00;100948.14;1671460;83;21121;-74
2022/01/19 03:41:07;;;;;;;4.77;3.40;;;;;;;-2.69;100.00;100954.12;1688250;83;21146;-74
2022/01/19 03:43:35;;;;;;;5.77;3.03;;;;;;;-2.75;100.00;100960.31;1681785;83;21122;-74
2022/01/19 03:46:12;;;;;;;8.13;3.27;;;;;;;-2.76;100.00;100971.20;1685190;83;21047;-74
2022/01/19 03:48:38;;;;;;;12.33;3.67;;;;;;;-2.72;100.00;100970.42;1713078;83;21071;-74
2022/01/19 03:51:03;;;;;;;5.77;3.10;;;;;;;-2.69;100.00;100967.14;1702705;83;20997;-73
2022/01/19 03:53:30;;;;;;;5.90;3.13;;;;;;;-2.77;100.00;101002.27;1682700;83;21086;-73
2022/01/19 03:55:59;;;;;;;6.13;3.40;;;;;;;-2.72;100.00;100980.92;1695883;83;21138;-73
2022/01/19 03:58:26;;;;;;;6.23;3.40;;;;;;;-2.69;100.00;100986.88;1691788;83;22264;-74
2022/01/19 04:00:57;;;;;;;5.67;3.37;;;;;;;-2.75;100.00;100985.92;1698600;83;21034;-73
2022/01/19 04:08:45;;;;;;;6.90;3.50;;;;;;;-2.73;100.00;101001.92;1667693;83;21037;-75
2022/01/19 04:11:14;;;;;;;5.43;3.43;;;;;;;-2.73;100.00;101005.28;1710150;83;20988;-74
2022/01/19 04:16:25;;;;;;;7.40;3.40;;;;;;;-2.82;100.00;101010.14;1707678;83;21055;-75
2022/01/19 04:19:01;;;;;;;6.30;3.17;;;;;;;-2.86;100.00;101015.55;1701398;83;21134;-75
2022/01/19 04:21:21;;;;;;;6.07;3.47;;;;;;;-2.93;100.00;101040.17;1696369;83;21007;-75
2022/01/19 04:23:49;;;;;;;5.93;3.40;;;;;;;-2.90;100.00;101015.44;1705993;83;21616;-75
2022/01/19 04:26:16;;;;;;;5.60;3.40;;;;;;;-2.89;100.00;101032.27;1708246;83;21024;-75
2022/01/19 04:28:44;;;;;;;5.90;3.53;;;;;;;-2.87;100.00;101028.11;1708264;83;21099;-74
2022/01/19 04:31:11;;;;;;;7.07;3.67;;;;;;;-2.89;100.00;101028.50;1701127;83;21041;-74
2022/01/19 04:33:44;;;;;;;7.07;3.50;;;;;;;-2.95;100.00;101034.67;1715349;83;21559;-74
2022/01/19 04:36:25;;;;;;;9.37;4.00;;;;;;;-2.92;100.00;101037.23;1673677;84;21033;-74
2022/01/19 05:05:48;;;;;;;5.77;3.57;;;;;;;-2.95;100.00;101080.86;1674656;84;21044;-74
2022/01/19 05:08:19;;;;;;;6.27;3.47;;;;;;;-2.95;100.00;101069.94;1707130;83;21060;-72
2022/01/19 05:15:53;;;;;;;9.90;4.17;;;;;;;-2.96;100.00;101084.59;1690200;83;21024;-71
2022/01/19 05:18:23;;;;;;;9.20;3.70;;;;;;;-3.04;100.00;101081.53;1681781;83;21012;-72
2022/01/19 05:20:51;;;;;;;9.03;4.20;;;;;;;-2.96;100.00;101098.06;1713977;83;21071;-72
2022/01/19 05:23:23;;;;;;;7.73;3.57;;;;;;;-2.97;100.00;101099.28;1663175;83;21059;-73
2022/01/19 05:25:50;;;;;;;7.93;3.80;;;;;;;-2.99;100.00;101111.00;1697214;83;21111;-71
2022/01/19 05:28:18;;;;;;;6.93;3.90;;;;;;;-2.95;100.00;101094.71;1701525;83;21076;-71
2022/01/19 05:30:47;;;;;;;7.97;3.87;;;;;;;-2.98;100.00;101095.92;1690028;83;21579;-72
2022/01/19 05:33:14;;;;;;;10.73;4.37;;;;;;;-2.93;100.00;101124.98;1653600;86;21139;-72
2022/01/19 05:35:41;;;;;;;7.87;3.83;;;;;;;-2.91;100.00;101107.81;1704143;83;21059;-71
2022/01/19 05:38:15;;;;;;;6.93;3.80;;;;;;;-2.84;100.00;101123.89;1668657;83;21056;-71
2022/01/19 05:40:54;;;;;;;6.40;3.90;;;;;;;-2.88;100.00;101120.88;1708578;83;21046;-72
2022/01/19 05:43:22;;;;;;;6.53;3.40;;;;;;;-2.87;100.00;101120.07;1698566;83;21028;-71
2022/01/19 05:45:49;;;;;;;6.80;4.10;;;;;;;-2.85;100.00;101123.05;1697687;83;21551;-72
2022/01/19 05:48:18;;;;;;;10.90;4.47;;;;;;;-2.86;100.00;101130.19;1711612;83;21539;-70
2022/01/19 05:50:47;;;;;;;7.93;4.00;;;;;;;-2.80;100.00;101129.85;1706278;83;21090;-71
2022/01/19 05:53:16;;;;;;;7.20;3.77;;;;;;;-2.83;100.00;101139.47;1707413;83;21570;-71
2022/01/19 05:55:45;;;;;;;9.13;3.80;;;;;;;-2.86;100.00;101138.13;1683017;84;21082;-72
2022/01/19 05:58:12;;;;;;;9.17;4.00;;;;;;;-2.80;100.00;101139.94;1710268;83;21528;-71
2022/01/19 06:00:40;;;;;;;7.17;3.93;;;;;;;-2.83;100.00;101134.43;1694373;83;21547;-73
2022/01/19 06:03:09;;;;;;;7.03;4.03;;;;;;;-2.80;100.00;101130.70;1648869;86;21064;-71
2022/01/19 06:05:38;;;;;;;10.60;4.10;;;;;;;-2.75;100.00;101125.77;1640835;85;21184;-71
2022/01/19 06:08:28;;;;;;;9.43;4.20;;;;;;;-2.78;100.00;101131.58;1683838;84;21055;-71
2022/01/19 06:10:54;;;;;;;6.30;3.77;;;;;;;-2.75;100.00;101126.62;1688355;83;21039;-71
2022/01/19 06:13:19;;;;;;;8.23;3.80;;;;;;;-2.75;100.00;101140.89;1693324;82;21666;-71
2022/01/19 06:15:47;;;;;;;7.87;3.70;;;;;;;-2.77;100.00;101132.03;1639854;86;21007;-72
2022/01/19 06:18:16;;;;;;;7.27;3.63;;;;;;;-2.72;100.00;101137.16;1690267;84;21103;-71
2022/01/19 06:20:45;;;;;;;7.23;3.93;;;;;;;-2.73;100.00;101141.36;1692530;84;21082;-70
2022/01/19 06:23:13;;;;;;;8.67;4.00;;;;;;;-2.76;100.00;101136.23;1688278;84;21069;-72
2022/01/19 06:25:41;;;;;;;5.70;3.60;;;;;;;-2.76;100.00;101142.53;1686899;84;21528;-73
2022/01/19 06:28:08;;;;;;;6.30;3.30;;;;;;;-2.75;100.00;101144.67;1688883;84;21035;-71
2022/01/19 06:30:36;;;;;;;8.27;4.00;;;;;;;-2.77;100.00;101157.23;1668434;84;21047;-72
2022/01/19 06:33:05;;;;;;;10.57;4.20;;;;;;;-2.78;100.00;101160.55;1688032;84;21519;-72
2022/01/19 06:35:33;;;;;;;8.03;3.83;;;;;;;-2.76;100.00;101165.22;1686920;84;21026;-73
2022/01/19 06:38:08;;;;;;;7.30;3.70;;;;;;;-2.80;100.00;101165.97;1689086;84;21114;-71
2022/01/19 06:40:39;;;;;;;6.10;3.43;;;;;;;-2.68;100.00;101181.77;1681237;84;21125;-71
2022/01/19 06:43:08;;;;;;;8.77;4.30;;;;;;;-2.70;100.00;101182.98;1691982;84;21110;-71
2022/01/19 06:45:35;;;;;;;9.13;4.57;;;;;;;-2.66;100.00;101186.01;1692142;84;21035;-71
2022/01/19 06:48:02;;;;;;;8.20;4.30;;;;;;;-2.72;100.00;101186.30;1672977;83;21595;-71
2022/01/19 06:50:31;;;;;;;10.43;4.30;;;;;;;-2.70;100.00;101188.02;1692195;83;21078;-71
2022/01/19 06:52:59;;;;;;;8.17;3.93;;;;;;;-2.55;100.00;101190.45;1690960;83;21014;-71
2022/01/19 06:55:26;;;;;;;4.73;3.23;;;;;;;-2.56;100.00;101193.77;1692167;83;21086;-73
2022/01/19 06:57:55;;;;;;;7.97;4.33;;;;;;;-2.55;100.00;101204.31;1660105;86;21101;-73
2022/01/19 07:00:40;;;;;;;6.80;3.63;;;;;;;-2.62;100.00;101205.45;1709773;81;21151;-71
2022/01/19 07:03:09;;;;;;;7.50;4.07;;;;;;;-2.56;100.00;101207.22;1702744;82;21015;-71
2022/01/19 07:05:40;;;;;;;5.63;3.40;;;;;;;-2.48;100.00;101214.53;1699080;81;21087;-71
2022/01/19 07:08:27;;;;;;;6.97;3.63;;;;;;;-2.56;100.00;101221.08;1643485;86;21535;-72
2022/01/19 07:10:55;;;;;;;6.40;3.70;;;;;;;-2.58;100.00;101224.39;1636546;85;21520;-71
2022/01/19 07:13:22;;;;;;;7.57;4.07;;;;;;;-2.50;100.00;101229.19;1707389;82;21098;-70
2022/01/19 07:15:49;;;;;;;7.80;4.10;;;;;;;-2.55;100.00;101236.66;1687446;84;21067;-71
2022/01/19 07:18:16;;;;;;;7.97;3.60;;;;;;;-2.54;100.00;101223.23;1690808;84;21010;-70
2022/01/19 07:20:43;;;;;;;6.43;3.57;;;;;;;-2.56;100.00;101226.54;1690909;82;20955;-71
2022/01/19 07:23:10;;;;;;;7.23;3.70;;;;;;;-2.62;100.00;101232.30;1706674;82;21024;-72
2022/01/19 07:25:37;;;;;;;8.00;3.60;;;;;;;-2.62;100.00;101233.17;1687119;84;21502;-69
2022/01/19 07:28:08;;;;;;;8.73;3.57;;;;;;;-2.50;100.00;101229.19;1689334;83;21086;-71
2022/01/19 07:30:35;;;;;;;8.37;3.53;;;;;;;-2.43;100.00;101234.40;1686775;83;21071;-71
2022/01/19 07:33:03;;;;;;;5.53;3.37;;;;;;;-2.43;100.00;101236.08;1686699;84;21125;-73
2022/01/19 07:35:31;;;;;;;6.63;3.23;;;;;;;-2.46;100.00;101233.48;1689932;84;21173;-72
2022/01/19 07:37:59;;;;;;;7.73;3.73;;;;;;;-2.36;100.00;101236.63;1668808;84;21106;-71
2022/01/19 07:40:26;;;;;;;6.30;3.27;;;;;;;-2.42;100.00;101231.04;1690313;84;21055;-72
2022/01/19 07:42:53;;;;;;;6.07;3.17;;;;;;;-2.45;100.00;101234.78;1647696;86;21543;-71
2022/01/19 07:45:21;;;;;;;6.07;3.63;;;;;;;-2.42;100.00;101234.82;1686784;84;21742;-72
2022/01/19 07:47:51;;;;;;;8.60;4.17;;;;;;;-2.43;100.00;101244.48;1671799;85;21598;-71
2022/01/19 07:50:23;;;;;;;5.90;3.67;;;;;;;-2.33;100.00;101235.83;1685067;84;21471;-72
2022/01/19 07:52:52;;;;;;;7.00;2.90;;;;;;;-2.25;100.00;101240.23;1689046;83;21039;-70
2022/01/19 07:55:34;;;;;;;7.10;3.07;;;;;;;-2.30;100.00;101238.02;1680586;85;21087;-71
2022/01/19 07:58:11;;;;;;;4.60;2.83;;;;;;;-2.44;100.00;101233.09;1688147;83;21570;-72
2022/01/19 08:00:43;;;;;;;6.50;2.97;;;;;;;-2.39;100.00;101229.02;1690260;83;21044;-71
2022/01/19 08:03:28;;;;;;;4.97;2.63;;;;;;;-2.40;100.00;101224.78;1651747;86;21095;-71
2022/01/19 08:05:57;;;;;;;5.53;2.87;;;;;;;-2.38;100.00;101220.62;1639731;86;21126;-72
2022/01/19 08:08:24;;;;;;;12.47;4.83;;;;;;;-2.47;100.00;101221.70;1633059;86;21575;-71
2022/01/19 08:10:51;;;;;;;5.73;3.13;;;;;;;-2.24;100.00;101217.95;1630917;86;21058;-72
2022/01/19 08:13:18;;;;;;;4.77;2.80;;;;;;;-2.20;100.00;101225.19;1685779;84;21074;-71
2022/01/19 08:15:46;;;;;;;3.90;2.50;;;;;;;-2.25;100.00;101220.44;1686696;84;21126;-73
2022/01/19 08:18:13;;;;;;;4.63;2.60;;;;;;;-2.46;100.00;101225.91;1683491;84;21007;-72
2022/01/19 08:20:43;;;;;;;7.50;3.10;;;;;;;-2.48;100.00;101227.55;1689151;84;21106;-72
2022/01/19 08:23:10;;;;;;;5.27;2.87;;;;;;;-2.39;100.00;101218.93;1686526;84;21031;-72
2022/01/19 08:25:45;;;;;;;4.90;2.73;;;;;;;-2.37;100.00;101222.34;1689251;83;21142;-72
2022/01/19 08:28:13;;;;;;;6.10;3.20;;;;;;;-2.36;100.00;101224.02;1686882;84;21007;-71
2022/01/19 08:30:40;;;;;;;3.73;2.80;;;;;;;-2.30;100.00;101217.00;1632058;86;21104;-71
2022/01/19 08:33:09;;;;;;;4.53;2.20;;;;;;;-2.34;100.00;101213.55;1671968;85;21541;-71
2022/01/19 08:35:42;;;;;;;5.47;2.90;;;;;;;-2.43;100.00;101230.62;1667294;84;21544;-73
2022/01/19 08:38:09;;;;;;;6.33;2.63;;;;;;;-2.44;100.00;101217.97;1690856;84;21043;-72
2022/01/19 08:40:38;;;;;;;6.47;2.77;;;;;;;-2.42;100.00;101217.59;1688685;82;21122;-71
2022/01/19 08:43:08;;;;;;;5.50;3.10;;;;;;;-2.27;100.00;101216.66;1690131;83;21007;-71
2022/01/19 08:45:36;;;;;;;5.60;3.00;;;;;;;-2.07;100.00;101211.12;1690632;84;21031;-72
2022/01/19 08:48:04;;;;;;;5.50;3.07;;;;;;;-1.96;100.00;101210.09;1641172;86;21137;-73
2022/01/19 08:50:36;;;;;;;6.00;3.00;;;;;;;-1.96;100.00;101218.50;1687622;84;21039;-71
2022/01/19 08:53:05;;;;;;;6.67;3.03;;;;;;;-2.07;100.00;101221.22;1691619;83;21067;-71
2022/01/19 08:55:36;;;;;;;6.13;3.47;;;;;;;-2.18;100.00;101211.34;1688477;83;21192;-71
2022/01/19 08:58:05;;;;;;;6.10;3.20;;;;;;;-2.10;100.00;101215.70;1640659;86;21082;-70
2022/01/19 09:00:32;;;;;;;5.83;3.17;;;;;;;-1.89;100.00;101217.77;1637420;86;21106;-72
2022/01/19 09:02:59;;;;;;;8.13;4.50;;;;;;;-1.91;100.00;101212.27;1640905;86;21586;-72
2022/01/19 09:05:25;;;;;;;5.87;3.03;;;;;;;-1.83;100.00;101213.25;1639631;86;21019;-72
2022/01/19 09:07:53;;;;;;;5.90;2.83;;;;;;;-1.85;100.00;101224.58;1640873;86;21557;-72
2022/01/19 09:10:22;;;;;;;8.97;3.87;;;;;;;-1.91;100.00;101215.63;1684347;83;21075;-72
2022/01/19 09:12:49;;;;;;;8.17;3.97;;;;;;;-1.67;100.00;101221.53;1686374;84;21059;-73
2022/01/19 09:15:18;;;;;;;6.67;3.40;;;;;;;-1.79;100.00;101222.58;1642265;86;21131;-72
2022/01/19 09:17:45;;;;;;;4.20;2.90;;;;;;;-1.79;100.00;101221.73;1653763;84;21063;-72
2022/01/19 09:20:14;;;;;;;5.33;3.00;;;;;;;-1.79;100.00;101215.43;1691505;84;21023;-72
2022/01/19 09:22:42;;;;;;;7.07;3.50;;;;;;;-1.76;100.00;101220.13;1690365;84;21046;-72
2022/01/19 09:25:11;;;;;;;7.17;3.07;;;;;;;-1.79;100.00;101212.91;1689241;84;20992;-71
2022/01/19 09:27:38;;;;;;;5.57;2.93;;;;;;;-1.83;100.00;101219.14;1686670;85;21035;-71
2022/01/19 09:30:10;;;;;;;6.93;3.07;;;;;;;-1.82;100.00;101222.12;1690226;84;21582;-72
2022/01/19 09:32:39;;;;;;;7.07;2.90;;;;;;;-1.86;100.00;101227.09;1653072;85;21044;-72
2022/01/19 09:35:09;;;;;;;26.60;9.00;;;;;;;-1.84;100.00;101228.81;1637549;86;21552;-72
2022/01/19 09:37:38;;;;;;;9.50;4.67;;;;;;;-1.75;100.00;101231.06;1651649;85;21064;-72
2022/01/19 09:40:08;;;;;;;17.37;6.73;;;;;;;-1.61;100.00;101225.84;1686464;85;21089;-72
2022/01/19 09:42:35;;;;;;;29.20;10.77;;;;;;;-1.48;100.00;101221.45;1690232;84;21179;-72
2022/01/19 09:45:04;;;;;;;17.83;7.20;;;;;;;-1.57;100.00;101219.19;1637663;86;21059;-71
2022/01/19 09:47:32;;;;;;;11.93;4.77;;;;;;;-1.74;100.00;101220.16;1637959;86;21039;-71
2022/01/19 09:50:01;;;;;;;4.67;2.90;;;;;;;-1.71;100.00;101218.94;1643692;86;21082;-72
2022/01/19 09:52:30;;;;;;;5.20;2.80;;;;;;;-1.79;100.00;101217.95;1687682;84;21114;-72
2022/01/19 09:54:57;;;;;;;4.67;2.90;;;;;;;-1.83;100.00;101226.72;1688943;84;21058;-72
2022/01/19 09:57:24;;;;;;;5.53;2.93;;;;;;;-1.88;100.00;101223.70;1686923;84;20991;-72
2022/01/19 09:59:51;;;;;;;6.83;3.57;;;;;;;-1.88;100.00;101220.75;1684540;84;21090;-73
2022/01/19 10:02:18;;;;;;;7.47;3.83;;;;;;;-1.70;100.00;101224.44;1641746;86;21035;-72
2022/01/19 10:04:47;;;;;;;4.53;3.03;;;;;;;-1.59;100.00;101222.09;1663046;85;21083;-73
2022/01/19 10:07:27;;;;;;;6.07;3.00;;;;;;;-1.75;100.00;101225.59;1642767;86;21055;-72
2022/01/19 10:10:02;;;;;;;4.67;2.97;;;;;;;-1.76;100.00;101226.83;1642697;86;21039;-72
2022/01/19 10:18:26;;;;;;;8.13;3.20;;;;;;;-1.70;100.00;101224.44;1645209;85;21551;-72
2022/01/19 10:21:12;;;;;;;7.40;2.95;;;;;;;-1.72;100.00;101245.02;1665689;84;21540;-73
2022/01/19 10:23:50;;;;;;;3.43;2.40;;;;;;;-1.79;100.00;101238.98;1715379;82;21055;-71
2022/01/19 10:26:27;;;;;;;5.17;3.10;;;;;;;-1.94;100.00;101250.08;1716554;83;21055;-73
2022/01/19 10:29:07;;;;;;;12.90;4.73;;;;;;;-2.08;100.00;101243.50;1711779;83;21500;-73
2022/01/19 10:31:38;;;;;;;9.37;3.53;;;;;;;-1.89;100.00;101236.70;1715005;83;21520;-73
2022/01/19 10:34:22;;;;;;;6.10;3.47;;;;;;;-1.70;100.00;101242.95;1714452;83;21078;-73
2022/01/19 10:36:55;;;;;;;8.33;3.17;;;;;;;-1.81;100.00;101247.78;1715936;83;21012;-72
2022/01/19 10:39:26;;;;;;;8.57;4.07;;;;;;;-1.85;100.00;101242.66;1714242;83;21150;-73
2022/01/19 10:42:10;;;;;;;6.53;3.70;;;;;;;-1.76;100.00;101244.49;1715717;83;21063;-72
2022/01/19 10:44:42;;;;;;;5.33;3.30;;;;;;;-1.82;100.00;101245.25;1716786;83;21004;-72
2022/01/19 10:47:10;;;;;;;6.67;3.90;;;;;;;-1.87;100.00;101248.09;1717408;83;21059;-71
2022/01/19 10:49:56;;;;;;;11.00;5.50;;;;;;;-1.88;100.00;101249.77;1718581;83;21076;-73
2022/01/19 10:52:42;;;;;;;7.70;4.10;;;;;;;-1.79;100.00;101255.39;1676873;84;21493;-72
2022/01/19 10:55:20;;;;;;;5.73;3.53;;;;;;;-1.89;100.00;101255.62;1673448;85;21134;-73
2022/01/19 10:57:50;;;;;;;6.53;3.17;;;;;;;-1.96;100.00;101251.30;1675214;85;21048;-72
2022/01/19 11:00:24;;;;;;;6.17;3.60;;;;;;;-1.87;100.00;101253.14;1716076;82;21078;-72
2022/01/19 11:02:56;;;;;;;5.93;3.27;;;;;;;-2.00;100.00;101248.28;1709948;83;21567;-73
2022/01/19 11:05:44;;;;;;;8.20;3.30;;;;;;;-1.95;100.00;101251.72;1712193;83;21075;-72
2022/01/19 11:08:12;;;;;;;5.17;3.40;;;;;;;-2.00;100.00;101253.32;1688481;84;21748;-72
2022/01/19 11:10:41;;;;;;;5.10;3.37;;;;;;;-2.09;100.00;101249.34;1710100;83;21138;-71
2022/01/19 11:13:13;;;;;;;5.87;3.30;;;;;;;-2.11;100.00;101241.77;1681267;83;21115;-72
2022/01/19 11:15:37;;;;;;;6.83;3.70;;;;;;;-2.07;100.00;101248.58;1692672;83;21104;-72
2022/01/19 11:18:03;;;;;;;8.23;3.53;;;;;;;-2.14;100.00;101250.95;1695933;83;21080;-71
2022/01/19 11:20:35;;;;;;;9.07;3.80;;;;;;;-2.09;100.00;101241.39;1695309;83;21017;-72
2022/01/19 11:23:56;;;;;;;6.73;3.80;;;;;;;-2.27;100.00;101259.53;1631496;86;21052;-72
2022/01/19 11:26:30;;;;;;;6.07;3.33;;;;;;;-2.28;100.00;101255.70;1706892;83;21028;-71
2022/01/19 11:29:18;;;;;;;6.12;3.85;;;;;;;-2.37;100.00;101252.98;1707740;83;21078;-71
2022/01/19 11:31:45;;;;;;;10.17;4.27;;;;;;;-2.49;100.00;101253.59;1707288;83;21064;-72
2022/01/19 11:34:13;;;;;;;6.97;3.83;;;;;;;-2.29;100.00;101252.34;1691167;83;21532;-72
2022/01/19 11:36:43;;;;;;;6.47;3.90;;;;;;;-2.21;100.00;101257.52;1697948;83;21071;-73
2022/01/19 11:39:21;;;;;;;6.70;4.10;;;;;;;-2.23;100.00;101253.72;1699719;83;21063;-72
2022/01/19 11:41:55;;;;;;;7.67;4.13;;;;;;;-2.16;100.00;101264.78;1696630;83;21004;-71
2022/01/19 11:44:38;;;;;;;7.17;3.93;;;;;;;-2.13;100.00;101267.77;1700343;84;21075;-72
2022/01/19 11:47:16;;;;;;;6.78;4.12;;;;;;;-2.25;100.00;101273.02;1704592;83;21500;-72
2022/01/19 11:49:55;;;;;;;8.93;4.60;;;;;;;-2.38;100.00;101274.83;1698344;83;21552;-72
2022/01/19 11:52:30;;;;;;;7.27;4.13;;;;;;;-2.35;100.00;101281.59;1700567;83;21047;-72
2022/01/19 11:55:25;;;;;;;10.53;4.65;;;;;;;-2.45;100.00;101283.94;1715680;83;21115;-71
2022/01/19 11:58:20;;;;;;;9.07;4.50;;;;;;;-2.43;100.00;101283.56;1690068;84;21071;-72
2022/01/19 12:00:51;;;;;;;5.12;3.72;;;;;;;-2.36;100.00;101296.30;1712572;83;21075;-72
2022/01/19 12:03:35;;;;;;;6.37;3.97;;;;;;;-2.39;100.00;101289.53;1714450;83;21031;-72
2022/01/19 12:06:02;;;;;;;5.37;3.70;;;;;;;-2.50;100.00;101290.95;1695004;83;21027;-71
2022/01/19 12:08:38;;;;;;;6.97;4.00;;;;;;;-2.44;100.00;101293.61;1719598;82;21098;-73
2022/01/19 12:11:22;;;;;;;5.07;3.00;;;;;;;-2.46;100.00;101300.28;1719845;83;20996;-73
2022/01/19 12:14:17;;;;;;;7.00;3.50;;;;;;;-2.55;100.00;101292.53;1717133;83;21092;-71
2022/01/19 12:17:24;;;;;;;6.80;3.83;;;;;;;-2.55;100.00;101292.53;1717240;83;21015;-71
2022/01/19 12:19:40;;;;;;;7.23;3.97;;;;;;;-2.61;100.00;101291.98;1715445;83;21036;-71
2022/01/19 12:22:26;;;;;;;10.13;4.25;;;;;;;-2.65;100.00;101293.58;1720667;83;21063;-70
2022/01/19 12:25:00;;;;;;;7.63;3.93;;;;;;;-2.69;100.00;101297.27;1714056;83;21576;-71
2022/01/19 12:27:34;;;;;;;7.05;4.20;;;;;;;-2.66;100.00;101294.37;1716288;83;21024;-71
2022/01/19 12:30:15;;;;;;;8.13;4.03;;;;;;;-2.69;100.00;101290.96;1715890;83;21023;-71
2022/01/19 12:32:52;;;;;;;6.40;4.00;;;;;;;-2.73;100.00;101290.03;1711271;83;21540;-71
2022/01/19 12:35:35;;;;;;;7.70;4.47;;;;;;;-2.81;100.00;101289.00;1700692;82;21067;-71
2022/01/19 12:38:07;;;;;;;7.40;4.27;;;;;;;-2.84;100.00;101292.70;1700114;83;21477;-71
2022/01/19 12:40:42;;;;;;;9.43;4.93;;;;;;;-2.82;100.00;101296.11;1719418;81;21063;-71
2022/01/19 12:43:29;;;;;;;8.73;4.87;;;;;;;-2.80;100.00;101296.99;1695916;83;21048;-72
2022/01/19 12:46:00;;;;;;;9.03;4.37;;;;;;;-2.77;100.00;101297.08;1655495;85;21071;-72
2022/01/19 12:48:46;;;;;;;9.70;4.40;;;;;;;-2.84;100.00;101301.13;1684171;84;21011;-72
2022/01/19 12:51:40;;;;;;;8.50;4.23;;;;;;;-2.90;100.00;101298.85;1684123;84;21003;-72
2022/01/19 12:54:12;;;;;;;9.43;4.17;;;;;;;-3.04;100.00;101305.69;1676915;83;21107;-71
2022/01/19 12:56:53;;;;;;;9.30;4.33;;;;;;;-2.95;100.00;101304.20;1688823;84;21059;-72
2022/01/19 12:59:21;;;;;;;9.73;4.67;;;;;;;-2.98;100.00;101301.21;1675566;83;21595;-71
2022/01/19 13:01:47;;;;;;;9.20;4.60;;;;;;;-2.86;100.00;101309.45;1675045;84;21059;-72
2022/01/19 13:04:30;;;;;;;10.07;4.83;;;;;;;-2.84;100.00;101302.78;1685966;84;21012;-72